ID Time Temp Humidity Light PM2.5 PM10 Voltage Extra Firmware Position Fcnt TTN version Gateways Distance RSSI LSNR Radiosettings
2026-05-07 16:29:58 19°C 51.5% 3.3V v5 52.1188 / 5.07626 14593 ttn.v3 - -110 -2.75 867.9MHz, SF9BW125, 4/5CR
0.103km -94 -6.25 867.9MHz, SF9BW125, 4/5CR
2026-05-07 16:15:36 19.6875°C 47.875% 3.3V v5 52.1188 / 5.07626 14592 ttn.v3 0.103km -102 3 868.1MHz, SF12BW125, 4/5CR
- -113 -1.75 868.1MHz, SF12BW125, 4/5CR
2026-05-07 15:59:15 20.5625°C 45.75% 3.3V v5 52.1194 / 5.07599 14591 ttn.v3 0.112km -101 3.75 867.7MHz, SF9BW125, 4/5CR
- -109 -1 867.7MHz, SF9BW125, 4/5CR
2026-05-07 15:43:52 23.375°C 38.3125% 3.3V v5 52.1194 / 5.07599 14590 ttn.v3 0.112km -103 -1 868.5MHz, SF9BW125, 4/5CR
- -110 -3.5 868.5MHz, SF9BW125, 4/5CR
2026-05-07 15:28:28 24.6875°C 35.375% 3.3V v5 52.1194 / 5.07599 14589 ttn.v3 - -109 0 867.5MHz, SF9BW125, 4/5CR
0.112km -105 -5.25 867.5MHz, SF9BW125, 4/5CR
2026-05-07 15:13:04 24.6875°C 36.875% 3.3V v5 52.1194 / 5.07599 14588 ttn.v3 0.112km -102 0.5 868.3MHz, SF9BW125, 4/5CR
- -114 -5 868.3MHz, SF9BW125, 4/5CR
2026-05-07 14:57:39 25.875°C 36.0625% 3.3V v5 52.1194 / 5.07599 14587 ttn.v3 - -111 1.5 867.3MHz, SF9BW125, 4/5CR
0.112km -101 -4 867.3MHz, SF9BW125, 4/5CR
2026-05-07 14:42:15 26.125°C 36.875% 3.3V v5 52.1194 / 5.07599 14586 ttn.v3 - -113 -6.25 868.1MHz, SF9BW125, 4/5CR
2026-05-07 14:26:51 24.6875°C 40.125% 3.3V v5 52.1194 / 5.07599 14585 ttn.v3 0.112km -102 3.75 867.1MHz, SF9BW125, 4/5CR
- -110 0.25 867.1MHz, SF9BW125, 4/5CR
2026-05-07 14:11:28 24.3125°C 43.8125% 3.3V v5 52.1194 / 5.07599 14584 ttn.v3 - -108 -2.25 868.5MHz, SF9BW125, 4/5CR
0.112km -93 -11.75 868.5MHz, SF9BW125, 4/5CR
2026-05-07 13:56:05 23.875°C 42.125% 3.3V v5 52.1194 / 5.07599 14583 ttn.v3 - -114 -6.75 867.9MHz, SF9BW125, 4/5CR
2026-05-07 13:40:42 23.9375°C 45.5625% 3.3V v5 52.1194 / 5.07599 14582 ttn.v3 - -109 -1.25 868.3MHz, SF9BW125, 4/5CR
0.112km -101 -8.25 868.3MHz, SF9BW125, 4/5CR
2026-05-07 13:25:19 22.0625°C 50.8125% 3.3V v5 52.1194 / 5.07599 14581 ttn.v3 - -112 -0.5 867.7MHz, SF9BW125, 4/5CR
2026-05-07 13:09:57 21.25°C 56.1875% 3.3V v5 52.1194 / 5.07599 14580 ttn.v3 - -114 -1.5 868.1MHz, SF9BW125, 4/5CR
2026-05-07 12:54:35 20.75°C 57.6875% 3.3V v5 52.1194 / 5.07599 14579 ttn.v3 - -108 0.25 867.5MHz, SF9BW125, 4/5CR
2026-05-07 12:39:14 19.25°C 61.1875% 3.3V v5 52.1194 / 5.07599 14578 ttn.v3 - -114 -5.5 868.5MHz, SF9BW125, 4/5CR
2026-05-07 12:23:53 18.5625°C 62.8125% 3.3V v5 52.1194 / 5.07599 14577 ttn.v3 - -109 0.25 867.3MHz, SF9BW125, 4/5CR
0.112km -92 -9 867.3MHz, SF9BW125, 4/5CR
2026-05-07 12:08:33 17.1875°C 64.375% 3.3V v5 52.1194 / 5.07599 14576 ttn.v3 - -112 -5.75 868.3MHz, SF9BW125, 4/5CR
0.112km -95 -11.75 868.3MHz, SF9BW125, 4/5CR
2026-05-07 11:53:13 16.1875°C 64.5625% 3.3V v5 52.1194 / 5.07599 14575 ttn.v3 - -113 -2.25 867.1MHz, SF9BW125, 4/5CR
0.112km -95 -4 867.1MHz, SF9BW125, 4/5CR
2026-05-07 11:37:53 15.0625°C 64.25% 3.3V v5 52.1194 / 5.07599 14574 ttn.v3 - -114 -1.25 868.1MHz, SF9BW125, 4/5CR
0.112km -95 -10 868.1MHz, SF9BW125, 4/5CR
2026-05-07 11:22:34 14.4375°C 64.0625% 3.3V v5 52.1194 / 5.07599 14573 ttn.v3 - -115 -5.75 867.9MHz, SF9BW125, 4/5CR
0.112km -94 -13 867.9MHz, SF9BW125, 4/5CR
2026-05-07 10:51:55 13.625°C 63.3125% 3.3V v5 52.1194 / 5.07599 14571 ttn.v3 0.112km -102 3.75 867.7MHz, SF9BW125, 4/5CR
- -109 0.25 867.7MHz, SF9BW125, 4/5CR
2026-05-07 10:36:36 13.25°C 63.4375% 3.3V v5 52.1194 / 5.07599 14570 ttn.v3 - -113 -2.25 868.3MHz, SF9BW125, 4/5CR
0.112km -93 -10.5 868.3MHz, SF9BW125, 4/5CR
2026-05-07 10:21:17 12.875°C 63.5625% 3.3V v5 52.1194 / 5.07599 14569 ttn.v3 0.112km -94 6 867.5MHz, SF9BW125, 4/5CR
- -111 0.75 867.5MHz, SF9BW125, 4/5CR
2026-05-07 10:05:59 12.5625°C 62.375% 3.3V v5 52.1194 / 5.07599 14568 ttn.v3 0.112km -101 4.5 868.1MHz, SF9BW125, 4/5CR
- -114 -0.75 868.1MHz, SF9BW125, 4/5CR
- -125 -12.75 868.1MHz, SF9BW125, 4/5CR
2026-05-07 09:50:40 12.1875°C 63.1875% 3.3V v5 52.1194 / 5.07599 14567 ttn.v3 - -111 3 867.3MHz, SF9BW125, 4/5CR
2026-05-07 09:35:22 11.75°C 63.125% 3.3V v5 52.1194 / 5.07599 14566 ttn.v3 - -111 2 868.5MHz, SF9BW125, 4/5CR
0.112km -99 1.5 868.5MHz, SF9BW125, 4/5CR
2026-05-07 09:20:03 11.375°C 61.9375% 3.3V v5 52.1194 / 5.07599 14565 ttn.v3 0.112km -97 6 867.1MHz, SF9BW125, 4/5CR
2026-05-07 09:04:45 10.9375°C 58.8125% 3.3V v5 52.1194 / 5.07599 14564 ttn.v3 0.112km -101 2.5 868.3MHz, SF9BW125, 4/5CR
2026-05-07 08:49:27 10.5°C 57.9375% 3.3V v5 52.1194 / 5.07599 14563 ttn.v3 0.112km -97 5 867.9MHz, SF9BW125, 4/5CR
2026-05-07 08:34:09 10.1875°C 56.8125% 3.3V v5 52.1194 / 5.07599 14562 ttn.v3 0.112km -100 2.25 868.1MHz, SF9BW125, 4/5CR
2026-05-07 08:18:52 9.75°C 56.6875% 3.3V v5 52.1194 / 5.07599 14561 ttn.v3 0.112km -97 6.25 867.7MHz, SF9BW125, 4/5CR
- -109 -0.75 867.7MHz, SF9BW125, 4/5CR
2026-05-07 08:03:34 9.4375°C 55.0625% 3.3V v5 52.1194 / 5.07599 14560 ttn.v3 - -109 2 868.5MHz, SF9BW125, 4/5CR
0.112km -99 1 868.5MHz, SF9BW125, 4/5CR
2026-05-07 07:48:17 9.125°C 54% 3.3V v5 52.1194 / 5.07599 14559 ttn.v3 0.112km -96 3 867.5MHz, SF9BW125, 4/5CR
- -108 -0.5 867.5MHz, SF9BW125, 4/5CR
2026-05-07 07:32:59 8.8125°C 53.1875% 3.3V v5 52.1194 / 5.07599 14558 ttn.v3 - -109 1.5 868.3MHz, SF9BW125, 4/5CR
0.112km -101 -1.25 868.3MHz, SF9BW125, 4/5CR
2026-05-07 07:17:42 8.6875°C 53% 3.3V v5 52.1194 / 5.07599 14557 ttn.v3 0.112km -96 3.75 867.3MHz, SF9BW125, 4/5CR
- -109 2 867.3MHz, SF9BW125, 4/5CR
2026-05-07 07:02:25 8.625°C 53.0625% 3.3V v5 52.1194 / 5.07599 14556 ttn.v3 0.112km -99 2.75 868.1MHz, SF9BW125, 4/5CR
- -109 0.5 868.1MHz, SF9BW125, 4/5CR
2026-05-07 06:47:08 8.4375°C 53% 3.3V v5 52.1194 / 5.07599 14555 ttn.v3 0.112km -96 4.75 867.1MHz, SF9BW125, 4/5CR
- -111 1 867.1MHz, SF9BW125, 4/5CR
2026-05-07 06:16:33 8.0625°C 53.4375% 3.3V v5 52.1194 / 5.07599 14553 ttn.v3 0.112km -97 4.5 867.9MHz, SF9BW125, 4/5CR
- -113 -0.5 867.9MHz, SF9BW125, 4/5CR
2026-05-07 06:01:16 7.9375°C 53.625% 3.3V v5 52.1194 / 5.07599 14552 ttn.v3 0.112km -99 3 868.3MHz, SF9BW125, 4/5CR
- -111 -1.75 868.3MHz, SF9BW125, 4/5CR
2026-05-07 05:45:59 7.875°C 54.125% 3.3V v5 52.1194 / 5.07599 14551 ttn.v3 0.112km -96 6 867.7MHz, SF9BW125, 4/5CR
- -111 2.25 867.7MHz, SF9BW125, 4/5CR
2026-05-07 05:30:42 7.875°C 54.625% 3.3V v5 52.1194 / 5.07599 14550 ttn.v3 0.112km -101 4 868.1MHz, SF9BW125, 4/5CR
2026-05-07 05:15:25 7.9375°C 55.3125% 3.3V v5 52.1194 / 5.07599 14549 ttn.v3 0.112km -94 5.25 867.5MHz, SF9BW125, 4/5CR
2026-05-07 05:00:08 8.0625°C 56.375% 3.3V v5 52.1194 / 5.07599 14548 ttn.v3 - -111 1.25 868.5MHz, SF9BW125, 4/5CR
0.112km -102 0.5 868.5MHz, SF9BW125, 4/5CR
2026-05-07 04:44:51 8.1875°C 56.875% 3.3V v5 52.1194 / 5.07599 14547 ttn.v3 0.112km -94 6 867.3MHz, SF9BW125, 4/5CR
- -111 2 867.3MHz, SF9BW125, 4/5CR
2026-05-07 04:29:34 8.3125°C 57.625% 3.3V v5 52.1194 / 5.07599 14546 ttn.v3 0.112km -99 3.5 868.3MHz, SF9BW125, 4/5CR
- -111 1.75 868.3MHz, SF9BW125, 4/5CR
2026-05-07 04:14:16 8.5°C 59.0625% 3.3V v5 52.1194 / 5.07599 14545 ttn.v3 0.112km -97 5.75 867.1MHz, SF9BW125, 4/5CR
- -113 2 867.1MHz, SF9BW125, 4/5CR
2026-05-07 03:58:59 8.625°C 59.6875% 3.3V v5 52.1194 / 5.07599 14544 ttn.v3 0.112km -99 5 868.1MHz, SF9BW125, 4/5CR
- -111 1.25 868.1MHz, SF9BW125, 4/5CR
2026-05-07 03:43:42 8.75°C 59.875% 3.3V v5 52.1194 / 5.07599 14543 ttn.v3 0.112km -95 5.75 867.9MHz, SF9BW125, 4/5CR
- -114 0.75 867.9MHz, SF9BW125, 4/5CR
2026-05-07 03:28:24 8.9375°C 60.8125% 3.3V v5 52.1194 / 5.07599 14542 ttn.v3 0.112km -99 1.25 868.5MHz, SF9BW125, 4/5CR
- -111 1.25 868.5MHz, SF9BW125, 4/5CR
2026-05-07 03:13:07 9.125°C 61% 3.3V v5 52.1194 / 5.07599 14541 ttn.v3 0.112km -97 6.25 867.7MHz, SF9BW125, 4/5CR
- -108 2 867.7MHz, SF9BW125, 4/5CR
2026-05-07 02:57:49 9.4375°C 62.0625% 3.3V v5 52.1194 / 5.07599 14540 ttn.v3 0.112km -99 3.5 868.3MHz, SF9BW125, 4/5CR
- -111 1.5 868.3MHz, SF9BW125, 4/5CR
2026-05-07 02:42:31 9.625°C 62.3125% 3.3V v5 52.1194 / 5.07599 14539 ttn.v3 0.112km -94 5.25 867.5MHz, SF9BW125, 4/5CR
- -107 -0.25 867.5MHz, SF9BW125, 4/5CR
2026-05-07 02:27:14 9.875°C 62.1875% 3.3V v5 52.1194 / 5.07599 14538 ttn.v3 0.112km -97 4.5 868.1MHz, SF9BW125, 4/5CR
- -113 1.75 868.1MHz, SF9BW125, 4/5CR
2026-05-07 02:11:56 10.0625°C 61.75% 3.3V v5 52.1194 / 5.07599 14537 ttn.v3 0.112km -97 6.25 867.3MHz, SF9BW125, 4/5CR
- -109 2.25 867.3MHz, SF9BW125, 4/5CR
2026-05-07 01:56:38 10.25°C 63.125% 3.3V v5 52.1194 / 5.07599 14536 ttn.v3 - -111 1.5 868.5MHz, SF9BW125, 4/5CR
0.112km -101 1 868.5MHz, SF9BW125, 4/5CR
2026-05-07 01:41:20 10.5°C 63.8125% 3.3V v5 52.1194 / 5.07599 14535 ttn.v3 0.112km -97 6.5 867.1MHz, SF9BW125, 4/5CR
- -111 2.25 867.1MHz, SF9BW125, 4/5CR
2026-05-07 01:26:02 10.875°C 64.0625% 3.3V v5 52.1194 / 5.07599 14534 ttn.v3 0.112km -97 2.5 868.3MHz, SF9BW125, 4/5CR
- -109 2 868.3MHz, SF9BW125, 4/5CR
2026-05-07 01:10:44 11.25°C 63.625% 3.3V v5 52.1194 / 5.07599 14533 ttn.v3 0.112km -96 4.75 867.9MHz, SF9BW125, 4/5CR
- -111 1.75 867.9MHz, SF9BW125, 4/5CR
2026-05-07 00:55:25 11.4375°C 64.125% 3.3V v5 52.1194 / 5.07599 14532 ttn.v3 0.112km -99 4.75 868.1MHz, SF9BW125, 4/5CR
- -113 2.25 868.1MHz, SF9BW125, 4/5CR
2026-05-07 00:40:07 11.625°C 64.25% 3.3V v5 52.1194 / 5.07599 14531 ttn.v3 0.112km -97 5.75 867.7MHz, SF9BW125, 4/5CR
- -109 2 867.7MHz, SF9BW125, 4/5CR
2026-05-07 00:24:49 11.6875°C 64.25% 3.3V v5 52.1194 / 5.07599 14530 ttn.v3 0.112km -101 1.25 868.5MHz, SF9BW125, 4/5CR
- -109 1.25 868.5MHz, SF9BW125, 4/5CR
2026-05-07 00:09:30 11.8125°C 64.5625% 3.3V v5 52.1194 / 5.07599 14529 ttn.v3 0.112km -96 5.5 867.5MHz, SF9BW125, 4/5CR
2026-05-06 23:54:11 11.9375°C 65.5625% 3.3V v5 52.1194 / 5.07599 14528 ttn.v3 0.112km -99 4 868.3MHz, SF9BW125, 4/5CR
- -111 1.75 868.3MHz, SF9BW125, 4/5CR
2026-05-06 23:38:53 11.9375°C 66% 3.3V v5 52.1194 / 5.07599 14527 ttn.v3 0.112km -97 6.5 867.3MHz, SF9BW125, 4/5CR
2026-05-06 23:23:35 12.125°C 66.125% 3.3V v5 52.1194 / 5.07599 14526 ttn.v3 0.112km -99 4.5 868.1MHz, SF9BW125, 4/5CR
- -113 1.25 868.1MHz, SF9BW125, 4/5CR
2026-05-06 23:08:16 12.25°C 66.1875% 3.3V v5 52.1194 / 5.07599 14525 ttn.v3 0.112km -96 4.75 867.1MHz, SF9BW125, 4/5CR
2026-05-06 22:52:57 12.375°C 65.8125% 3.3V v5 52.1194 / 5.07599 14524 ttn.v3 - -111 0.5 868.5MHz, SF9BW125, 4/5CR
0.112km -102 -0.25 868.5MHz, SF9BW125, 4/5CR
2026-05-06 22:37:38 12.5625°C 65.625% 3.3V v5 52.1194 / 5.07599 14523 ttn.v3 0.112km -99 5.75 867.9MHz, SF9BW125, 4/5CR
- -112 0.5 867.9MHz, SF9BW125, 4/5CR
2026-05-06 22:22:19 12.75°C 65.625% 3.3V v5 52.1194 / 5.07599 14522 ttn.v3 0.112km -99 3.75 868.3MHz, SF9BW125, 4/5CR
- -109 2 868.3MHz, SF9BW125, 4/5CR
2026-05-06 22:07:01 12.875°C 65.1875% 3.3V v5 52.1194 / 5.07599 14521 ttn.v3 0.112km -97 5.75 867.7MHz, SF9BW125, 4/5CR
- -109 2 867.7MHz, SF9BW125, 4/5CR
2026-05-06 21:51:42 13°C 65.4375% 3.3V v5 52.1194 / 5.07599 14520 ttn.v3 0.112km -97 6.5 868.1MHz, SF9BW125, 4/5CR
2026-05-06 21:36:23 13.0625°C 65.875% 3.3V v5 52.1194 / 5.07599 14519 ttn.v3 0.112km -97 5.25 867.5MHz, SF9BW125, 4/5CR
- -109 2 867.5MHz, SF9BW125, 4/5CR
2026-05-06 21:21:04 13.25°C 66.8125% 3.3V v5 52.1194 / 5.07599 14518 ttn.v3 0.112km -101 1 868.5MHz, SF9BW125, 4/5CR
- -106 0.25 868.5MHz, SF9BW125, 4/5CR
2026-05-06 21:05:45 13.3125°C 67.3125% 3.3V v5 52.1194 / 5.07599 14517 ttn.v3 0.112km -95 5.75 867.3MHz, SF9BW125, 4/5CR
- -109 2.25 867.3MHz, SF9BW125, 4/5CR
2026-05-06 20:50:26 13.4375°C 67.0625% 3.3V v5 52.1194 / 5.07599 14516 ttn.v3 0.112km -99 4.75 868.3MHz, SF9BW125, 4/5CR
- -109 -2 868.3MHz, SF9BW125, 4/5CR
2026-05-06 20:35:06 13.5625°C 66.9375% 3.3V v5 52.1194 / 5.07599 14515 ttn.v3 0.112km -97 6.25 867.1MHz, SF9BW125, 4/5CR
- -113 2.5 867.1MHz, SF9BW125, 4/5CR
2026-05-06 20:19:47 13.8125°C 67.4375% 3.3V v5 52.1194 / 5.07599 14514 ttn.v3 0.112km -101 4.75 868.1MHz, SF9BW125, 4/5CR
- -111 3 868.1MHz, SF9BW125, 4/5CR
2026-05-06 20:04:28 14°C 66.5625% 3.3V v5 52.1194 / 5.07599 14513 ttn.v3 0.112km -99 4.75 867.9MHz, SF9BW125, 4/5CR
- -109 2 867.9MHz, SF9BW125, 4/5CR
2026-05-06 19:49:08 14.1875°C 67% 3.3V v5 52.1194 / 5.07599 14512 ttn.v3 0.112km -97 1 868.5MHz, SF9BW125, 4/5CR
2026-05-06 19:33:49 14.5°C 66.125% 3.3V v5 52.1194 / 5.07599 14511 ttn.v3 0.112km -95 4.75 867.7MHz, SF9BW125, 4/5CR
- -109 3 867.7MHz, SF9BW125, 4/5CR
2026-05-06 19:18:29 14.8125°C 65.6875% 3.3V v5 52.1194 / 5.07599 14510 ttn.v3 - -111 2.25 868.3MHz, SF9BW125, 4/5CR
0.112km -101 2 868.3MHz, SF9BW125, 4/5CR
2026-05-06 19:03:09 15°C 65.5% 3.3V v5 52.1194 / 5.07599 14509 ttn.v3 0.112km -95 4.75 867.5MHz, SF9BW125, 4/5CR
- -108 0.75 867.5MHz, SF9BW125, 4/5CR
2026-05-06 18:47:50 15.1875°C 65.3125% 3.3V v5 52.1194 / 5.07599 14508 ttn.v3 0.112km -101 4 868.1MHz, SF9BW125, 4/5CR
- -109 1.5 868.1MHz, SF9BW125, 4/5CR
2026-05-06 18:32:30 15.375°C 64.8125% 3.3V v5 52.1194 / 5.07599 14507 ttn.v3 0.112km -96 6.75 867.3MHz, SF9BW125, 4/5CR
- -109 2 867.3MHz, SF9BW125, 4/5CR
2026-05-06 18:17:10 15.5625°C 64.75% 3.3V v5 52.1194 / 5.07599 14506 ttn.v3 0.112km -99 2.25 868.5MHz, SF9BW125, 4/5CR
- -109 0.75 868.5MHz, SF9BW125, 4/5CR
2026-05-06 18:01:50 15.6875°C 63.75% 3.3V v5 52.1194 / 5.07599 14505 ttn.v3 0.112km -99 5.25 867.1MHz, SF9BW125, 4/5CR
2026-05-06 17:46:30 15.875°C 64.375% 3.3V v5 52.1194 / 5.07599 14504 ttn.v3 - -109 2.75 868.3MHz, SF9BW125, 4/5CR
0.112km -101 1.75 868.3MHz, SF9BW125, 4/5CR
2026-05-06 17:31:10 15.6875°C 64.8125% 3.3V v5 52.1194 / 5.07599 14503 ttn.v3 0.112km -96 3.75 867.9MHz, SF9BW125, 4/5CR
2026-05-06 17:15:50 15.4375°C 64.9375% 3.3V v5 52.1194 / 5.07599 14502 ttn.v3 - -113 1.75 868.1MHz, SF9BW125, 4/5CR
0.112km -102 0.75 868.1MHz, SF9BW125, 4/5CR
2026-05-06 17:00:30 15.3125°C 64.5625% 3.3V v5 52.1194 / 5.07599 14501 ttn.v3 0.112km -95 5.5 867.7MHz, SF9BW125, 4/5CR
- -100 0.75 867.7MHz, SF9BW125, 4/5CR
2026-05-06 16:45:10 15.1875°C 64.9375% 3.3V v5 52.1194 / 5.07599 14500 ttn.v3 0.112km -102 -2.5 868.5MHz, SF9BW125, 4/5CR
- -109 -2.5 868.5MHz, SF9BW125, 4/5CR
2026-05-06 16:29:51 15.375°C 65.4375% 3.3V v5 52.1194 / 5.07599 14499 ttn.v3 0.112km -97 1.75 867.5MHz, SF9BW125, 4/5CR
- -108 -0.25 867.5MHz, SF9BW125, 4/5CR
2026-05-06 16:14:31 15.5625°C 63.9375% 3.3V v5 52.1194 / 5.07599 14498 ttn.v3 0.112km -99 0.5 868.3MHz, SF9BW125, 4/5CR
- -108 -7.5 868.3MHz, SF9BW125, 4/5CR
2026-05-06 15:59:11 15.6875°C 64.1875% 3.3V v5 52.1194 / 5.07599 14497 ttn.v3 0.112km -95 4.5 867.3MHz, SF9BW125, 4/5CR
- -113 1 867.3MHz, SF9BW125, 4/5CR
2026-05-06 15:44:41 15.75°C 62.875% 3.3V v5 52.1194 / 5.07599 14496 ttn.v3 0.112km -98 2.25 868.1MHz, SF12BW125, 4/5CR
2026-05-06 15:28:31 16.0625°C 62.1875% 3.3V v5 52.1192 / 5.07623 14495 ttn.v3 0.094km -101 2.25 867.1MHz, SF9BW125, 4/5CR
- -113 1 867.1MHz, SF9BW125, 4/5CR
2026-05-06 15:13:11 16.6875°C 59.4375% 3.3V v5 52.1192 / 5.07623 14494 ttn.v3 - -109 1.25 868.5MHz, SF9BW125, 4/5CR
0.094km -102 -4.5 868.5MHz, SF9BW125, 4/5CR
2026-05-06 14:57:51 17.125°C 58.5625% 3.3V v5 52.1192 / 5.07623 14493 ttn.v3 0.094km -102 0.25 867.9MHz, SF9BW125, 4/5CR
- -113 0.25 867.9MHz, SF9BW125, 4/5CR
2026-05-06 14:42:30 17.25°C 57.0625% 3.3V v5 52.1192 / 5.07623 14492 ttn.v3 - -109 -1.5 868.3MHz, SF9BW125, 4/5CR
0.094km -99 -2 868.3MHz, SF9BW125, 4/5CR
2026-05-06 14:27:10 16.625°C 59.4375% 3.3V v5 52.1192 / 5.07623 14491 ttn.v3 0.094km -96 7 867.7MHz, SF9BW125, 4/5CR
- -113 -1.25 867.7MHz, SF9BW125, 4/5CR
2026-05-06 14:11:50 16.4375°C 61.75% 3.3V v5 52.1192 / 5.07623 14490 ttn.v3 - -114 -0.5 868.1MHz, SF9BW125, 4/5CR
0.094km -103 -4.75 868.1MHz, SF9BW125, 4/5CR
2026-05-06 13:56:30 16.3125°C 64.75% 3.3V v5 52.1192 / 5.07623 14489 ttn.v3 0.094km -99 3 867.5MHz, SF9BW125, 4/5CR
- -109 -3.5 867.5MHz, SF9BW125, 4/5CR
2026-05-06 13:41:10 15.875°C 68.125% 3.3V v5 52.1192 / 5.07623 14488 ttn.v3 0.094km -101 0.75 868.5MHz, SF9BW125, 4/5CR
- -112 -4.25 868.5MHz, SF9BW125, 4/5CR
2026-05-06 13:25:50 14.9375°C 68.25% 3.3V v5 52.1192 / 5.07623 14487 ttn.v3 0.094km -99 4.5 867.3MHz, SF9BW125, 4/5CR
- -113 -2.75 867.3MHz, SF9BW125, 4/5CR
2026-05-06 13:10:31 14.4375°C 68% 3.3V v5 52.1192 / 5.07623 14486 ttn.v3 - -113 -0.25 868.3MHz, SF9BW125, 4/5CR
0.094km -103 -8.75 868.3MHz, SF9BW125, 4/5CR
2026-05-06 12:55:11 14.0625°C 67.375% 3.3V v5 52.1192 / 5.07623 14485 ttn.v3 - -111 2.5 867.1MHz, SF9BW125, 4/5CR
0.094km -103 -4.5 867.1MHz, SF9BW125, 4/5CR
2026-05-06 12:39:52 13.9375°C 65.875% 3.3V v5 52.1192 / 5.07623 14484 ttn.v3 - -111 1.25 868.1MHz, SF9BW125, 4/5CR
0.094km -105 -10.75 868.1MHz, SF9BW125, 4/5CR
2026-05-06 12:24:32 14.25°C 66.3125% 3.3V v5 52.1192 / 5.07623 14483 ttn.v3 - -112 0.5 867.9MHz, SF9BW125, 4/5CR
0.094km -101 -2 867.9MHz, SF9BW125, 4/5CR
2026-05-06 12:09:13 14.5°C 66.5625% 3.3V v5 52.1192 / 5.07623 14482 ttn.v3 - -109 -2.5 868.5MHz, SF9BW125, 4/5CR
2026-05-06 11:53:53 15.375°C 67.625% 3.3V v5 52.1192 / 5.07623 14481 ttn.v3 0.094km -102 -1.75 867.7MHz, SF9BW125, 4/5CR
- -111 -2 867.7MHz, SF9BW125, 4/5CR
2026-05-06 11:38:33 16.0625°C 67.5625% 3.3V v5 52.1192 / 5.07623 14480 ttn.v3 - -109 3 868.3MHz, SF9BW125, 4/5CR
0.094km -103 -3 868.3MHz, SF9BW125, 4/5CR
2026-05-06 11:23:13 15.5°C 68.4375% 3.3V v5 52.1192 / 5.07623 14479 ttn.v3 0.094km -101 -0.5 867.5MHz, SF9BW125, 4/5CR
- -109 -0.75 867.5MHz, SF9BW125, 4/5CR
2026-05-06 11:07:53 15.5°C 68.5% 3.3V v5 52.1192 / 5.07623 14478 ttn.v3 - -113 1.25 868.1MHz, SF9BW125, 4/5CR
0.094km -103 -0.75 868.1MHz, SF9BW125, 4/5CR
2026-05-06 10:52:34 14.875°C 69.1875% 3.3V v5 52.1192 / 5.07623 14477 ttn.v3 0.094km -97 3.5 867.3MHz, SF9BW125, 4/5CR
- -111 1.25 867.3MHz, SF9BW125, 4/5CR
2026-05-06 10:37:14 14.75°C 68.625% 3.3V v5 52.1192 / 5.07623 14476 ttn.v3 - -111 1.75 868.5MHz, SF9BW125, 4/5CR
0.094km -99 1 868.5MHz, SF9BW125, 4/5CR
2026-05-06 10:21:55 14.375°C 68.8125% 3.3V v5 52.1192 / 5.07623 14475 ttn.v3 0.094km -97 5.5 867.1MHz, SF9BW125, 4/5CR
- -113 3.25 867.1MHz, SF9BW125, 4/5CR
2026-05-06 10:06:36 14.125°C 69% 3.3V v5 52.1192 / 5.07623 14474 ttn.v3 - -109 0.5 868.3MHz, SF9BW125, 4/5CR
0.094km -99 -2.25 868.3MHz, SF9BW125, 4/5CR
2026-05-06 09:51:16 14°C 69.875% 3.3V v5 52.1192 / 5.07623 14473 ttn.v3 0.094km -95 5.75 867.9MHz, SF9BW125, 4/5CR
- -114 -1.5 867.9MHz, SF9BW125, 4/5CR
2026-05-06 09:35:57 13.625°C 68.75% 3.3V v5 52.1192 / 5.07623 14472 ttn.v3 0.094km -98 3.5 868.1MHz, SF9BW125, 4/5CR
- -113 -1.25 868.1MHz, SF9BW125, 4/5CR
2026-05-06 09:20:38 13.4375°C 66.5625% 3.3V v5 52.1192 / 5.07623 14471 ttn.v3 0.094km -99 1.25 867.7MHz, SF9BW125, 4/5CR
2026-05-06 09:05:19 13°C 62.3125% 3.3V v5 52.1192 / 5.07623 14470 ttn.v3 0.094km -102 -0.5 868.5MHz, SF9BW125, 4/5CR
- -111 -2.25 868.5MHz, SF9BW125, 4/5CR
2026-05-06 08:50:01 12.625°C 59.9375% 3.3V v5 52.1192 / 5.07623 14469 ttn.v3 0.094km -96 3.75 867.5MHz, SF9BW125, 4/5CR
- -108 -3 867.5MHz, SF9BW125, 4/5CR
2026-05-06 08:34:42 12.3125°C 59.9375% 3.3V v5 52.1192 / 5.07623 14468 ttn.v3 - -111 -1.75 868.3MHz, SF9BW125, 4/5CR
0.094km -103 -6.25 868.3MHz, SF9BW125, 4/5CR
2026-05-06 08:19:24 12°C 58.5% 3.3V v5 52.1192 / 5.07623 14467 ttn.v3 0.094km -96 6.75 867.3MHz, SF9BW125, 4/5CR
- -108 0 867.3MHz, SF9BW125, 4/5CR
2026-05-06 08:04:05 11.75°C 57.5% 3.3V v5 52.1192 / 5.07623 14466 ttn.v3 0.094km -101 3.25 868.1MHz, SF9BW125, 4/5CR
2026-05-06 07:48:47 11.5°C 56.8125% 3.3V v5 52.1192 / 5.07623 14465 ttn.v3 0.094km -99 5.5 867.1MHz, SF9BW125, 4/5CR
- -111 1.25 867.1MHz, SF9BW125, 4/5CR
2026-05-06 07:33:28 11.375°C 56.1875% 3.3V v5 52.1192 / 5.07623 14464 ttn.v3 0.094km -100 1.75 868.5MHz, SF9BW125, 4/5CR
- -109 -2.25 868.5MHz, SF9BW125, 4/5CR
2026-05-06 07:18:10 11.125°C 56.5625% 3.3V v5 52.1192 / 5.07623 14463 ttn.v3 0.094km -103 0.25 867.9MHz, SF9BW125, 4/5CR
- -114 -0.5 867.9MHz, SF9BW125, 4/5CR
2026-05-06 07:02:52 11.0625°C 56.6875% 3.3V v5 52.1192 / 5.07623 14462 ttn.v3 0.094km -102 1.25 868.3MHz, SF9BW125, 4/5CR
- -109 0.75 868.3MHz, SF9BW125, 4/5CR
2026-05-06 06:47:34 10.9375°C 56.875% 3.3V v5 52.1192 / 5.07623 14461 ttn.v3 0.094km -99 4.25 867.7MHz, SF9BW125, 4/5CR
- -113 0.25 867.7MHz, SF9BW125, 4/5CR
2026-05-06 06:32:16 10.875°C 57% 3.3V v5 52.1192 / 5.07623 14460 ttn.v3 0.094km -102 3 868.1MHz, SF9BW125, 4/5CR
- -114 0 868.1MHz, SF9BW125, 4/5CR
2026-05-06 06:16:58 10.875°C 57.875% 3.3V v5 52.1192 / 5.07623 14459 ttn.v3 0.094km -99 4 867.5MHz, SF9BW125, 4/5CR
- -109 -0.75 867.5MHz, SF9BW125, 4/5CR
2026-05-06 06:01:40 10.8125°C 58.5625% 3.3V v5 52.1192 / 5.07623 14458 ttn.v3 0.094km -101 1 868.5MHz, SF9BW125, 4/5CR
- -111 0.5 868.5MHz, SF9BW125, 4/5CR
2026-05-06 05:46:22 10.75°C 59% 3.3V v5 52.1192 / 5.07623 14457 ttn.v3 0.094km -96 6.25 867.3MHz, SF9BW125, 4/5CR
- -109 3 867.3MHz, SF9BW125, 4/5CR
2026-05-06 05:31:03 10.6875°C 58.25% 3.3V v5 52.1192 / 5.07623 14456 ttn.v3 0.094km -102 1.75 868.3MHz, SF9BW125, 4/5CR
- -111 0.25 868.3MHz, SF9BW125, 4/5CR
2026-05-06 05:15:45 10.75°C 58.4375% 3.3V v5 52.1192 / 5.07623 14455 ttn.v3 0.094km -96 5.5 867.1MHz, SF9BW125, 4/5CR
- -111 1.25 867.1MHz, SF9BW125, 4/5CR
2026-05-06 05:00:27 10.75°C 58.125% 3.3V v5 52.1192 / 5.07623 14454 ttn.v3 0.094km -100 3.75 868.1MHz, SF9BW125, 4/5CR
- -114 1.25 868.1MHz, SF9BW125, 4/5CR
2026-05-06 04:45:09 10.8125°C 58.25% 3.3V v5 52.1192 / 5.07623 14453 ttn.v3 0.094km -97 5 867.9MHz, SF9BW125, 4/5CR
- -111 0.5 867.9MHz, SF9BW125, 4/5CR
- -127 -12.25 867.9MHz, SF9BW125, 4/5CR
2026-05-06 04:29:51 10.8125°C 59.0625% 3.3V v5 52.1192 / 5.07623 14452 ttn.v3 - -109 -0.5 868.5MHz, SF9BW125, 4/5CR
0.094km -103 -0.75 868.5MHz, SF9BW125, 4/5CR
2026-05-06 04:14:33 10.875°C 59.9375% 3.3V v5 52.1192 / 5.07623 14451 ttn.v3 0.094km -99 6.5 867.7MHz, SF9BW125, 4/5CR
- -111 2.25 867.7MHz, SF9BW125, 4/5CR
2026-05-06 03:59:15 11°C 60.75% 3.3V v5 52.1192 / 5.07623 14450 ttn.v3 0.094km -101 2.75 868.3MHz, SF9BW125, 4/5CR
2026-05-06 03:43:57 11°C 61% 3.3V v5 52.1192 / 5.07623 14449 ttn.v3 0.094km -95 3.25 867.5MHz, SF9BW125, 4/5CR
- -109 1.5 867.5MHz, SF9BW125, 4/5CR
2026-05-06 03:28:39 11.0625°C 61.0625% 3.3V v5 52.1192 / 5.07623 14448 ttn.v3 0.094km -96 4.25 868.1MHz, SF9BW125, 4/5CR
- -114 -1.5 868.1MHz, SF9BW125, 4/5CR
2026-05-06 03:13:20 11.0625°C 60.5625% 3.3V v5 52.1192 / 5.07623 14447 ttn.v3 0.094km -97 6.25 867.3MHz, SF9BW125, 4/5CR
- -111 1 867.3MHz, SF9BW125, 4/5CR
2026-05-06 02:58:02 11.0625°C 59.1875% 3.3V v5 52.1192 / 5.07623 14446 ttn.v3 0.094km -100 1 868.5MHz, SF9BW125, 4/5CR
- -111 0 868.5MHz, SF9BW125, 4/5CR
2026-05-06 02:42:44 11°C 59.0625% 3.3V v5 52.1192 / 5.07623 14445 ttn.v3 0.094km -99 6.5 867.1MHz, SF9BW125, 4/5CR
- -113 2 867.1MHz, SF9BW125, 4/5CR
2026-05-06 02:27:26 11°C 59% 3.3V v5 52.1192 / 5.07623 14444 ttn.v3 0.094km -102 1.5 868.3MHz, SF9BW125, 4/5CR
- -109 0.5 868.3MHz, SF9BW125, 4/5CR
2026-05-06 02:12:08 10.9375°C 58.875% 3.3V v5 52.1192 / 5.07623 14443 ttn.v3 0.094km -99 4 867.9MHz, SF9BW125, 4/5CR
- -113 -0.25 867.9MHz, SF9BW125, 4/5CR
2026-05-06 01:56:50 10.875°C 58.5625% 3.3V v5 52.1192 / 5.07623 14442 ttn.v3 0.094km -102 3.25 868.1MHz, SF9BW125, 4/5CR
- -113 -0.75 868.1MHz, SF9BW125, 4/5CR
2026-05-06 01:41:32 10.875°C 58% 3.3V v5 52.1192 / 5.07623 14441 ttn.v3 0.094km -99 5.25 867.7MHz, SF9BW125, 4/5CR
- -109 1.5 867.7MHz, SF9BW125, 4/5CR
2026-05-06 01:26:14 10.875°C 57.4375% 3.3V v5 52.1192 / 5.07623 14440 ttn.v3 0.094km -99 3.5 868.5MHz, SF9BW125, 4/5CR
- -111 -3.5 868.5MHz, SF9BW125, 4/5CR
2026-05-06 01:10:56 10.875°C 57.5% 3.3V v5 52.1192 / 5.07623 14439 ttn.v3 - -107 0.75 867.5MHz, SF9BW125, 4/5CR
2026-05-06 00:55:38 10.8125°C 57.25% 3.3V v5 52.1192 / 5.07623 14438 ttn.v3 0.094km -99 2.25 868.3MHz, SF9BW125, 4/5CR
- -113 1 868.3MHz, SF9BW125, 4/5CR
2026-05-06 00:40:20 10.75°C 57.4375% 3.3V v5 52.1192 / 5.07623 14437 ttn.v3 0.094km -99 3.5 867.3MHz, SF9BW125, 4/5CR
- -111 1.5 867.3MHz, SF9BW125, 4/5CR
2026-05-06 00:25:02 10.75°C 58.125% 3.3V v5 52.1192 / 5.07623 14436 ttn.v3 0.094km -100 1.25 868.1MHz, SF9BW125, 4/5CR
2026-05-06 00:09:44 10.6875°C 58.5% 3.3V v5 52.1192 / 5.07623 14435 ttn.v3 0.094km -97 6.75 867.1MHz, SF9BW125, 4/5CR
- -111 1 867.1MHz, SF9BW125, 4/5CR
2026-05-05 23:54:26 10.6875°C 59% 3.3V v5 52.1192 / 5.07623 14434 ttn.v3 0.094km -102 -0.75 868.5MHz, SF9BW125, 4/5CR
- -111 -1 868.5MHz, SF9BW125, 4/5CR
2026-05-05 23:39:07 11°C 60.1875% 3.3V v5 52.1192 / 5.07623 14433 ttn.v3 0.094km -96 5.75 867.9MHz, SF9BW125, 4/5CR
- -112 -0.25 867.9MHz, SF9BW125, 4/5CR
2026-05-05 23:23:49 11.25°C 60.125% 3.3V v5 52.1192 / 5.07623 14432 ttn.v3 0.094km -99 3.5 868.3MHz, SF9BW125, 4/5CR
- -109 0 868.3MHz, SF9BW125, 4/5CR
2026-05-05 23:08:31 11.4375°C 59.75% 3.3V v5 52.1192 / 5.07623 14431 ttn.v3 0.094km -97 6.25 867.7MHz, SF9BW125, 4/5CR
- -111 0.75 867.7MHz, SF9BW125, 4/5CR
2026-05-05 22:53:13 11.8125°C 60.25% 3.3V v5 52.1192 / 5.07623 14430 ttn.v3 0.094km -103 1 868.1MHz, SF9BW125, 4/5CR
- -112 -3.5 868.1MHz, SF9BW125, 4/5CR
2026-05-05 22:37:54 12.125°C 60.625% 3.3V v5 52.1192 / 5.07623 14429 ttn.v3 0.094km -93 5.25 867.5MHz, SF9BW125, 4/5CR
- -109 1.25 867.5MHz, SF9BW125, 4/5CR
2026-05-05 22:22:36 12.25°C 60.125% 3.3V v5 52.1192 / 5.07623 14428 ttn.v3 0.094km -102 1.5 868.5MHz, SF9BW125, 4/5CR
- -113 -0.25 868.5MHz, SF9BW125, 4/5CR
2026-05-05 22:07:17 12.375°C 59.1875% 3.3V v5 52.1192 / 5.07623 14427 ttn.v3 0.094km -97 6.25 867.3MHz, SF9BW125, 4/5CR
- -111 2.25 867.3MHz, SF9BW125, 4/5CR
2026-05-05 21:51:58 12.4375°C 59% 3.3V v5 52.1192 / 5.07623 14426 ttn.v3 0.094km -99 4.25 868.3MHz, SF9BW125, 4/5CR
- -108 2.25 868.3MHz, SF9BW125, 4/5CR
2026-05-05 21:36:39 12.5625°C 58.375% 3.3V v5 52.1192 / 5.07623 14425 ttn.v3 0.094km -102 3 867.1MHz, SF9BW125, 4/5CR
- -113 0.5 867.1MHz, SF9BW125, 4/5CR
2026-05-05 21:21:21 12.75°C 58.125% 3.3V v5 52.1192 / 5.07623 14424 ttn.v3 0.094km -100 4 868.1MHz, SF9BW125, 4/5CR
2026-05-05 21:06:02 13.0625°C 58.8125% 3.3V v5 52.1192 / 5.07623 14423 ttn.v3 0.094km -99 5.5 867.9MHz, SF9BW125, 4/5CR
2026-05-05 20:50:43 13.5°C 58.6875% 3.3V v5 52.1192 / 5.07623 14422 ttn.v3 0.094km -97 3.25 868.5MHz, SF9BW125, 4/5CR
- -111 -1 868.5MHz, SF9BW125, 4/5CR
2026-05-05 20:35:24 14.125°C 59.0625% 3.3V v5 52.1192 / 5.07623 14421 ttn.v3 0.094km -97 4.75 867.7MHz, SF9BW125, 4/5CR
- -109 0.5 867.7MHz, SF9BW125, 4/5CR
2026-05-05 20:20:04 14.625°C 59.6875% 3.3V v5 52.1192 / 5.07623 14420 ttn.v3 - -113 0.25 868.3MHz, SF9BW125, 4/5CR
0.094km -105 -3.75 868.3MHz, SF9BW125, 4/5CR
2026-05-05 20:04:44 15.25°C 60.375% 3.3V v5 52.1192 / 5.07623 14419 ttn.v3 - -109 0.75 867.5MHz, SF9BW125, 4/5CR
0.094km -98 0.5 867.5MHz, SF9BW125, 4/5CR
2026-05-05 19:49:24 16.1875°C 61.5% 3.3V v5 52.1192 / 5.07623 14418 ttn.v3 0.094km -103 -2.75 868.1MHz, SF9BW125, 4/5CR
2026-05-05 19:34:04 16.6875°C 61.4375% 3.3V v5 52.1192 / 5.07623 14417 ttn.v3 - -111 1.25 867.3MHz, SF9BW125, 4/5CR
0.094km -102 -4.75 867.3MHz, SF9BW125, 4/5CR
2026-05-05 19:18:44 17.125°C 61.4375% 3.3V v5 52.1192 / 5.07623 14416 ttn.v3 - -113 -3.25 868.5MHz, SF9BW125, 4/5CR
0.094km -103 -10.75 868.5MHz, SF9BW125, 4/5CR
2026-05-05 19:03:23 17.4375°C 61.625% 3.3V v5 52.1192 / 5.07623 14415 ttn.v3 0.094km -103 0.25 867.1MHz, SF9BW125, 4/5CR
2026-05-05 18:48:02 17.625°C 62% 3.3V v5 52.1192 / 5.07623 14414 ttn.v3 - -109 -0.25 868.3MHz, SF9BW125, 4/5CR
2026-05-05 18:32:41 17.875°C 61.75% 3.3V v5 52.1192 / 5.07623 14413 ttn.v3 0.094km -102 3.75 867.9MHz, SF9BW125, 4/5CR
- -111 2.5 867.9MHz, SF9BW125, 4/5CR
2026-05-05 18:17:20 18.125°C 62.25% 3.3V v5 52.1192 / 5.07623 14412 ttn.v3 0.094km -102 4.25 868.1MHz, SF9BW125, 4/5CR
- -113 2.5 868.1MHz, SF9BW125, 4/5CR
2026-05-05 18:01:59 18.125°C 61.9375% 3.3V v5 52.1192 / 5.07623 14411 ttn.v3 0.094km -102 3.25 867.7MHz, SF9BW125, 4/5CR
- -111 2.25 867.7MHz, SF9BW125, 4/5CR
2026-05-05 17:46:38 18.625°C 62.0625% 3.3V v5 52.1192 / 5.07623 14410 ttn.v3 - -107 1 868.5MHz, SF9BW125, 4/5CR
0.094km -105 -6.25 868.5MHz, SF9BW125, 4/5CR
2026-05-05 17:31:17 18.625°C 61.875% 3.3V v5 52.1192 / 5.07623 14409 ttn.v3 - -108 1 867.5MHz, SF9BW125, 4/5CR
2026-05-05 17:15:56 18.3125°C 62.125% 3.3V v5 52.1192 / 5.07623 14408 ttn.v3 - -109 2.25 868.3MHz, SF9BW125, 4/5CR
0.094km -103 -3.5 868.3MHz, SF9BW125, 4/5CR
2026-05-05 17:00:35 18.5625°C 62.0625% 3.3V v5 52.1192 / 5.07623 14407 ttn.v3 0.094km -101 3.5 867.3MHz, SF9BW125, 4/5CR
- -106 3.25 867.3MHz, SF9BW125, 4/5CR
2026-05-05 16:45:14 18.6875°C 61.9375% 3.3V v5 52.1192 / 5.07623 14406 ttn.v3 - -109 2.5 868.1MHz, SF9BW125, 4/5CR
0.094km -103 -0.25 868.1MHz, SF9BW125, 4/5CR
2026-05-05 16:29:53 19°C 62% 3.3V v5 52.1192 / 5.07623 14405 ttn.v3 - -109 4.5 867.1MHz, SF9BW125, 4/5CR
0.094km -103 0.25 867.1MHz, SF9BW125, 4/5CR
2026-05-05 16:14:31 19.125°C 62% 3.3V v5 52.1192 / 5.07623 14404 ttn.v3 - -108 3 868.5MHz, SF9BW125, 4/5CR
0.094km -99 -5.75 868.5MHz, SF9BW125, 4/5CR
2026-05-05 15:59:10 19.375°C 62.0625% 3.3V v5 52.1192 / 5.07623 14403 ttn.v3 - -109 1.5 867.9MHz, SF9BW125, 4/5CR
0.094km -100 0.5 867.9MHz, SF9BW125, 4/5CR
2026-05-05 15:43:48 19.75°C 62.5% 3.3V v5 52.1192 / 5.07623 14402 ttn.v3 - -109 3.5 868.3MHz, SF9BW125, 4/5CR
0.094km -97 2.25 868.3MHz, SF9BW125, 4/5CR
2026-05-05 15:28:26 19.9375°C 62% 3.3V v5 52.1192 / 5.07623 14401 ttn.v3 - -109 5 867.7MHz, SF9BW125, 4/5CR
0.094km -102 -2 867.7MHz, SF9BW125, 4/5CR
2026-05-05 15:14:05 20.75°C 61.25% 3.3V v5 52.1192 / 5.07623 14400 ttn.v3 - -108 1.5 868.1MHz, SF12BW125, 4/5CR
0.094km -101 -2 868.1MHz, SF12BW125, 4/5CR
2026-05-05 14:57:44 21°C 61.0625% 3.3V v5 52.1193 / 5.07602 14399 ttn.v3 0.108km -96 3.25 867.5MHz, SF9BW125, 4/5CR
- -108 1.75 867.5MHz, SF9BW125, 4/5CR
2026-05-05 14:42:22 21.125°C 62.5% 3.3V v5 52.1193 / 5.07602 14398 ttn.v3 - -108 3 868.5MHz, SF9BW125, 4/5CR
0.108km -102 -2.25 868.5MHz, SF9BW125, 4/5CR
2026-05-05 14:27:00 20.3125°C 63% 3.3V v5 52.1193 / 5.07602 14397 ttn.v3 - -109 4 867.3MHz, SF9BW125, 4/5CR
0.108km -99 3.5 867.3MHz, SF9BW125, 4/5CR
2026-05-05 14:11:38 19.9375°C 65.5% 3.3V v5 52.1193 / 5.07602 14396 ttn.v3 - -109 3.75 868.3MHz, SF9BW125, 4/5CR
0.108km -103 -6.25 868.3MHz, SF9BW125, 4/5CR
2026-05-05 13:56:18 18.125°C 63.75% 3.3V v5 52.1193 / 5.07602 14395 ttn.v3 - -109 3 867.1MHz, SF9BW125, 4/5CR
0.108km -103 -2.5 867.1MHz, SF9BW125, 4/5CR
5.898km -107 -10.25 867.1MHz, SF9BW125, 4/5CR
2026-05-05 13:40:58 15.8125°C 61% 3.3V v5 52.1193 / 5.07602 14394 ttn.v3 - -113 2.75 868.1MHz, SF9BW125, 4/5CR
0.108km -103 -3 868.1MHz, SF9BW125, 4/5CR
2026-05-05 13:25:38 14.5625°C 58.9375% 3.3V v5 52.1193 / 5.07602 14393 ttn.v3 0.108km -97 4.75 867.9MHz, SF9BW125, 4/5CR
- -111 3.5 867.9MHz, SF9BW125, 4/5CR
2026-05-05 13:10:19 14.25°C 58% 3.3V v5 52.1193 / 5.07602 14392 ttn.v3 - -107 2 868.5MHz, SF9BW125, 4/5CR
0.108km -102 -3.5 868.5MHz, SF9BW125, 4/5CR

Message count: 200
Node count: 1

Messages per node

Number of messages in list aboveNodes
200

Statistics per gateway

GatewayNumber of messagesNumber of nodesNodes
1891 (0.108km)
1781
21
11 (5.898km)

Filter by dataset